createdAt,value
2023-05-08T00:04:39.123Z,17.43
2023-05-08T00:09:40.491Z,17.49
2023-05-08T00:14:41.829Z,17.32
2023-05-08T00:19:43.152Z,17.34
2023-05-08T00:24:44.611Z,17.34
2023-05-08T00:29:45.914Z,17.27
2023-05-08T00:34:47.304Z,17.21
2023-05-08T00:39:48.603Z,17.08
2023-05-08T00:44:49.935Z,17.13
2023-05-08T00:49:51.302Z,17.09
2023-05-08T00:54:53.514Z,17.13
2023-05-08T00:59:55.603Z,17.05
2023-05-08T01:04:57.327Z,16.93
2023-05-08T01:09:58.714Z,16.94
2023-05-08T01:15:14.386Z,16.89
2023-05-08T01:20:43.711Z,16.87
2023-05-08T01:26:06.314Z,16.86
2023-05-08T01:31:29.236Z,16.85
2023-05-08T01:36:45.370Z,16.83
2023-05-08T01:41:58.864Z,16.84
2023-05-08T01:47:06.425Z,16.79
2023-05-08T01:52:14.688Z,16.75
2023-05-08T01:57:18.524Z,16.82
2023-05-08T02:02:20.914Z,16.79
2023-05-08T02:07:23.820Z,16.76
2023-05-08T02:12:26.790Z,16.70
2023-05-08T02:17:30.785Z,16.48
2023-05-08T02:22:33.576Z,16.58
2023-05-08T02:27:36.402Z,16.58
2023-05-08T02:32:39.257Z,16.64
2023-05-08T02:37:46.580Z,16.60
2023-05-08T02:42:48.830Z,16.63
2023-05-08T02:48:04.176Z,16.50
2023-05-08T02:53:11.194Z,16.45
2023-05-08T02:58:18.611Z,16.48
2023-05-08T03:03:25.097Z,16.42
2023-05-08T03:08:30.672Z,16.40
2023-05-08T03:13:35.845Z,16.35
2023-05-08T03:18:44.915Z,16.32
2023-05-08T03:23:48.353Z,16.29
2023-05-08T03:28:51.085Z,16.19
2023-05-08T03:33:54.429Z,16.24
2023-05-08T03:38:56.686Z,16.26
2023-05-08T03:43:58.897Z,16.19
2023-05-08T03:49:03.259Z,16.17
2023-05-08T03:54:04.682Z,16.11
2023-05-08T03:59:29.082Z,16.13
2023-05-08T04:04:38.041Z,16.17
2023-05-08T04:09:57.989Z,16.16
2023-05-08T04:15:05.970Z,16.04
2023-05-08T04:20:12.161Z,16.02
2023-05-08T04:25:16.458Z,15.93
2023-05-08T04:30:18.185Z,15.95
2023-05-08T04:35:19.792Z,15.94
2023-05-08T04:40:21.167Z,15.86
2023-05-08T04:45:22.649Z,15.88
2023-05-08T04:50:24.170Z,15.78
2023-05-08T04:55:25.627Z,15.78
2023-05-08T05:00:27.169Z,15.82
2023-05-08T05:05:28.693Z,15.78
2023-05-08T05:10:30.114Z,15.80
2023-05-08T05:15:31.491Z,15.80
2023-05-08T05:20:32.817Z,15.79
2023-05-08T05:25:34.759Z,15.83
2023-05-08T05:30:36.211Z,15.76
2023-05-08T05:35:37.600Z,15.81
2023-05-08T05:40:38.964Z,15.72
2023-05-08T05:45:40.516Z,15.76
2023-05-08T05:50:41.810Z,15.68
2023-05-08T05:55:43.105Z,15.69
2023-05-08T06:00:44.704Z,15.67
2023-05-08T06:05:47.102Z,15.65
2023-05-08T06:10:48.518Z,15.67
2023-05-08T06:15:50.500Z,15.66
2023-05-08T06:20:57.407Z,15.71
2023-05-08T06:25:58.918Z,15.63
2023-05-08T06:31:00.275Z,15.75
2023-05-08T06:36:01.638Z,15.73
2023-05-08T06:41:02.935Z,15.75
2023-05-08T06:46:04.865Z,15.69
2023-05-08T06:51:06.699Z,15.72
2023-05-08T06:56:08.115Z,15.66
2023-05-08T07:01:09.432Z,15.79
2023-05-08T07:06:10.813Z,15.79
2023-05-08T07:11:12.444Z,15.83
2023-05-08T07:16:14.611Z,15.81
2023-05-08T07:21:17.955Z,15.83
2023-05-08T07:26:19.271Z,15.83
2023-05-08T07:31:21.369Z,15.90
2023-05-08T07:36:22.753Z,15.95
2023-05-08T07:41:24.316Z,15.96
2023-05-08T07:46:25.800Z,15.98
2023-05-08T07:51:27.603Z,16.00
2023-05-08T07:56:28.985Z,16.03
2023-05-08T08:01:30.301Z,16.10
2023-05-08T08:06:31.694Z,16.11
2023-05-08T08:11:33.195Z,16.13
2023-05-08T08:16:34.610Z,16.02
2023-05-08T08:21:36.183Z,16.12
2023-05-08T08:26:37.636Z,16.18
2023-05-08T08:31:39.123Z,16.21
2023-05-08T08:36:40.573Z,16.24
2023-05-08T08:41:42.003Z,16.27
2023-05-08T08:46:53.556Z,16.34
2023-05-08T08:52:17.912Z,16.37
2023-05-08T08:57:20.252Z,16.46
2023-05-08T09:02:23.509Z,16.46
2023-05-08T09:07:25.932Z,16.48
2023-05-08T09:12:27.377Z,16.50
2023-05-08T09:17:28.904Z,16.44
2023-05-08T09:22:30.557Z,16.43
2023-05-08T09:27:32.379Z,16.49
2023-05-08T09:32:35.932Z,16.51
2023-05-08T09:37:42.920Z,16.52
2023-05-08T09:42:45.084Z,16.50
2023-05-08T09:47:49.578Z,16.53
2023-05-08T09:52:51.148Z,16.61
2023-05-08T09:57:58.021Z,16.59
2023-05-08T10:03:01.490Z,16.58
2023-05-08T10:08:22.524Z,16.62
2023-05-08T10:13:24.065Z,16.66
2023-05-08T10:18:30.021Z,16.75
2023-05-08T10:23:34.141Z,16.84
2023-05-08T10:28:49.697Z,16.89
2023-05-08T10:33:55.850Z,17.05
2023-05-08T10:38:58.696Z,17.11
2023-05-08T10:44:03.033Z,17.16
2023-05-08T10:49:14.834Z,17.13
2023-05-08T10:54:21.699Z,17.19
2023-05-08T10:59:23.728Z,17.26
2023-05-08T11:04:25.504Z,17.45
2023-05-08T11:09:28.972Z,17.58
2023-05-08T11:14:31.732Z,17.91
2023-05-08T11:19:33.309Z,18.07
2023-05-08T11:24:36.556Z,18.14
2023-05-08T11:29:38.821Z,18.27
2023-05-08T11:34:43.605Z,18.49
2023-05-08T11:39:45.910Z,18.55
2023-05-08T11:44:47.569Z,18.55
2023-05-08T11:49:49.044Z,18.61
2023-05-08T11:54:50.532Z,18.66
2023-05-08T11:59:52.041Z,18.78
2023-05-08T12:04:54.487Z,18.83
2023-05-08T12:09:55.911Z,18.89
2023-05-08T12:14:57.315Z,19.07
2023-05-08T12:20:16.700Z,19.18
2023-05-08T12:25:18.677Z,19.39
2023-05-08T12:30:20.255Z,19.49
2023-05-08T12:35:21.930Z,19.60
2023-05-08T12:40:29.822Z,19.80
2023-05-08T12:45:33.745Z,19.98
2023-05-08T12:50:37.388Z,20.00
2023-05-08T12:55:39.320Z,20.12
2023-05-08T13:00:51.889Z,20.27
2023-05-08T13:05:57.995Z,20.28
2023-05-08T13:11:00.290Z,20.31
2023-05-08T13:16:04.425Z,20.33
2023-05-08T13:21:05.888Z,20.49
2023-05-08T13:26:07.168Z,20.56
2023-05-08T13:31:08.498Z,20.63
2023-05-08T13:36:09.887Z,20.72
2023-05-08T13:41:11.334Z,20.64
2023-05-08T13:46:12.764Z,20.57
2023-05-08T13:51:14.478Z,20.51
2023-05-08T13:56:15.832Z,20.43
2023-05-08T14:01:25.947Z,20.46
2023-05-08T14:06:28.072Z,20.57
2023-05-08T14:11:29.590Z,20.66
2023-05-08T14:16:31.164Z,20.72
2023-05-08T14:21:32.730Z,20.75
2023-05-08T14:26:34.119Z,20.76
2023-05-08T14:31:35.824Z,20.69
2023-05-08T14:36:37.235Z,20.63
2023-05-08T14:41:40.821Z,20.57
2023-05-08T14:46:42.154Z,20.58
2023-05-08T14:51:43.711Z,20.51
2023-05-08T15:02:07.084Z,20.54
2023-05-08T15:07:08.391Z,20.54
2023-05-08T15:12:09.746Z,20.61
2023-05-08T15:17:11.126Z,20.55
2023-05-08T15:22:13.767Z,20.46
2023-05-08T15:27:15.286Z,20.38
2023-05-08T15:32:16.641Z,20.25
2023-05-08T15:37:18.027Z,20.14
2023-05-08T15:42:20.924Z,20.03
2023-05-08T15:47:23.174Z,19.97
2023-05-08T15:52:24.757Z,19.89
2023-05-08T15:57:27.001Z,19.85
2023-05-08T16:02:28.531Z,19.62
2023-05-08T16:07:30.006Z,19.59
2023-05-08T16:12:31.365Z,19.55
2023-05-08T16:17:33.109Z,19.55
2023-05-08T16:22:34.427Z,19.44
2023-05-08T16:27:36.809Z,19.26
2023-05-08T16:32:39.705Z,19.23
2023-05-08T16:37:41.173Z,19.31
2023-05-08T16:42:42.555Z,19.24
2023-05-08T16:47:43.896Z,19.14
2023-05-08T16:52:45.376Z,19.10
2023-05-08T16:57:46.684Z,19.13
2023-05-08T17:02:48.374Z,19.03
2023-05-08T17:07:50.052Z,19.05
2023-05-08T17:12:54.063Z,19.07
2023-05-08T17:17:55.923Z,19.04
2023-05-08T17:22:57.347Z,19.04
2023-05-08T17:28:00.664Z,19.08
2023-05-08T17:33:03.511Z,19.07
2023-05-08T17:38:04.834Z,19.04
2023-05-08T17:43:08.473Z,19.06
2023-05-08T17:48:09.867Z,19.05
2023-05-08T17:53:11.171Z,19.03
2023-05-08T17:58:12.476Z,19.02
2023-05-08T18:03:13.866Z,19.02
2023-05-08T18:08:15.289Z,19.02
2023-05-08T18:13:16.599Z,18.95
2023-05-08T18:18:17.924Z,18.92
2023-05-08T18:23:19.366Z,18.90
2023-05-08T18:28:20.856Z,18.83
2023-05-08T18:33:22.284Z,18.79
2023-05-08T18:38:23.837Z,18.68
2023-05-08T18:43:25.197Z,18.72
2023-05-08T18:48:27.129Z,18.69
2023-05-08T18:53:30.403Z,18.65
2023-05-08T18:58:31.733Z,18.62
2023-05-08T19:03:33.081Z,18.59
2023-05-08T19:08:34.405Z,18.60
2023-05-08T19:13:35.845Z,18.58
2023-05-08T19:18:37.142Z,18.59
2023-05-08T19:23:38.477Z,18.58
2023-05-08T19:28:39.718Z,18.58
2023-05-08T19:33:41.241Z,18.53
2023-05-08T19:38:42.559Z,18.49
2023-05-08T19:43:43.858Z,18.52
2023-05-08T19:48:45.209Z,18.47
2023-05-08T19:53:46.638Z,18.46
2023-05-08T19:58:47.927Z,18.39
2023-05-08T20:03:49.337Z,18.33
2023-05-08T20:08:50.807Z,18.29
2023-05-08T20:13:52.105Z,18.24
2023-05-08T20:18:53.834Z,18.18
2023-05-08T20:23:55.170Z,18.09
2023-05-08T20:28:57.255Z,18.12
2023-05-08T20:33:59.586Z,18.11
2023-05-08T20:39:01.086Z,18.02
2023-05-08T20:44:02.441Z,18.03
2023-05-08T20:49:04.282Z,17.97
2023-05-08T20:54:05.845Z,17.96
2023-05-08T20:59:07.399Z,17.93
2023-05-08T21:04:08.971Z,17.95
2023-05-08T21:09:10.690Z,17.89
2023-05-08T21:14:12.004Z,17.92
2023-05-08T21:19:17.422Z,17.89
2023-05-08T21:24:18.797Z,17.91
2023-05-08T21:29:20.214Z,17.85
2023-05-08T21:34:22.681Z,17.84
2023-05-08T21:39:24.009Z,17.82
2023-05-08T21:44:25.448Z,17.80
2023-05-08T21:49:26.758Z,17.77
2023-05-08T21:54:28.178Z,17.83
2023-05-08T21:59:29.468Z,17.79
2023-05-08T22:04:30.797Z,17.75
2023-05-08T22:09:32.183Z,17.73
2023-05-08T22:14:33.617Z,17.70
2023-05-08T22:19:35.033Z,17.67
2023-05-08T22:24:36.385Z,17.67
2023-05-08T22:29:37.709Z,17.63
2023-05-08T22:34:39.095Z,17.56
2023-05-08T22:39:40.483Z,17.56
2023-05-08T22:44:43.250Z,17.58
2023-05-08T22:49:45.075Z,17.59
2023-05-08T22:54:46.408Z,17.57
2023-05-08T22:59:47.705Z,17.62
2023-05-08T23:04:49.261Z,17.58
2023-05-08T23:09:50.727Z,17.61
2023-05-08T23:14:52.028Z,17.59
2023-05-08T23:19:53.398Z,17.58
2023-05-08T23:24:54.893Z,17.57
2023-05-08T23:29:56.525Z,17.58
2023-05-08T23:34:57.807Z,17.56
2023-05-08T23:39:59.198Z,17.53
2023-05-08T23:45:00.519Z,17.51
2023-05-08T23:50:02.058Z,17.53
2023-05-08T23:55:03.704Z,17.55
